sensor_id;sensor_type;location;lat;lon;timestamp;P1;durP1;ratioP1;P2;durP2;ratioP2
8889;SDS011;4481;43.406;24.454;2023-03-20T00:00:16;23.10;;;15.97;;
8889;SDS011;4481;43.406;24.454;2023-03-20T00:02:47;23.90;;;17.60;;
8889;SDS011;4481;43.406;24.454;2023-03-20T00:05:17;32.80;;;20.60;;
8889;SDS011;4481;43.406;24.454;2023-03-20T00:07:45;35.17;;;21.87;;
8889;SDS011;4481;43.406;24.454;2023-03-20T00:10:12;34.10;;;21.13;;
8889;SDS011;4481;43.406;24.454;2023-03-20T00:12:38;29.30;;;19.60;;
8889;SDS011;4481;43.406;24.454;2023-03-20T00:15:22;29.40;;;18.87;;
8889;SDS011;4481;43.406;24.454;2023-03-20T00:17:50;29.67;;;18.60;;
8889;SDS011;4481;43.406;24.454;2023-03-20T00:20:16;30.43;;;17.97;;
8889;SDS011;4481;43.406;24.454;2023-03-20T00:22:42;27.20;;;18.10;;
8889;SDS011;4481;43.406;24.454;2023-03-20T00:25:11;24.13;;;16.83;;
8889;SDS011;4481;43.406;24.454;2023-03-20T00:27:38;24.60;;;15.53;;
8889;SDS011;4481;43.406;24.454;2023-03-20T00:30:08;23.00;;;15.93;;
8889;SDS011;4481;43.406;24.454;2023-03-20T00:32:43;20.13;;;15.53;;
8889;SDS011;4481;43.406;24.454;2023-03-20T00:35:13;21.40;;;14.80;;
8889;SDS011;4481;43.406;24.454;2023-03-20T00:37:46;23.40;;;15.43;;
8889;SDS011;4481;43.406;24.454;2023-03-20T00:40:13;22.73;;;14.73;;
8889;SDS011;4481;43.406;24.454;2023-03-20T00:42:39;24.53;;;14.80;;
8889;SDS011;4481;43.406;24.454;2023-03-20T00:45:08;20.30;;;14.77;;
8889;SDS011;4481;43.406;24.454;2023-03-20T00:47:38;18.30;;;14.07;;
8889;SDS011;4481;43.406;24.454;2023-03-20T00:50:06;22.33;;;15.13;;
8889;SDS011;4481;43.406;24.454;2023-03-20T00:52:39;22.23;;;15.33;;
8889;SDS011;4481;43.406;24.454;2023-03-20T00:55:05;20.57;;;15.03;;
8889;SDS011;4481;43.406;24.454;2023-03-20T00:57:33;28.63;;;17.73;;
8889;SDS011;4481;43.406;24.454;2023-03-20T01:00:06;24.10;;;17.63;;
8889;SDS011;4481;43.406;24.454;2023-03-20T01:02:39;25.43;;;16.67;;
8889;SDS011;4481;43.406;24.454;2023-03-20T01:05:05;18.90;;;14.27;;
8889;SDS011;4481;43.406;24.454;2023-03-20T01:07:32;21.53;;;15.07;;
8889;SDS011;4481;43.406;24.454;2023-03-20T01:09:58;20.87;;;14.57;;
8889;SDS011;4481;43.406;24.454;2023-03-20T01:12:24;19.90;;;14.47;;
8889;SDS011;4481;43.406;24.454;2023-03-20T01:14:52;20.03;;;13.73;;
8889;SDS011;4481;43.406;24.454;2023-03-20T01:17:20;21.17;;;13.20;;
8889;SDS011;4481;43.406;24.454;2023-03-20T01:19:48;19.27;;;13.93;;
8889;SDS011;4481;43.406;24.454;2023-03-20T01:22:15;19.47;;;14.43;;
8889;SDS011;4481;43.406;24.454;2023-03-20T01:24:42;18.87;;;14.13;;
8889;SDS011;4481;43.406;24.454;2023-03-20T01:27:09;19.33;;;13.83;;
8889;SDS011;4481;43.406;24.454;2023-03-20T01:29:38;16.00;;;13.47;;
8889;SDS011;4481;43.406;24.454;2023-03-20T01:32:07;16.33;;;12.87;;
8889;SDS011;4481;43.406;24.454;2023-03-20T01:34:36;17.90;;;12.93;;
8889;SDS011;4481;43.406;24.454;2023-03-20T01:37:05;21.40;;;13.33;;
8889;SDS011;4481;43.406;24.454;2023-03-20T01:39:37;15.43;;;12.07;;
8889;SDS011;4481;43.406;24.454;2023-03-20T01:42:03;16.37;;;11.60;;
8889;SDS011;4481;43.406;24.454;2023-03-20T01:44:31;19.93;;;13.23;;
8889;SDS011;4481;43.406;24.454;2023-03-20T01:46:59;19.63;;;12.37;;
8889;SDS011;4481;43.406;24.454;2023-03-20T01:52:31;17.77;;;12.60;;
8889;SDS011;4481;43.406;24.454;2023-03-20T01:54:57;14.73;;;12.07;;
8889;SDS011;4481;43.406;24.454;2023-03-20T01:57:23;19.53;;;12.40;;
8889;SDS011;4481;43.406;24.454;2023-03-20T01:59:51;16.63;;;12.60;;
8889;SDS011;4481;43.406;24.454;2023-03-20T02:02:22;17.40;;;12.50;;
8889;SDS011;4481;43.406;24.454;2023-03-20T02:04:53;17.37;;;13.00;;
8889;SDS011;4481;43.406;24.454;2023-03-20T02:07:22;17.47;;;12.90;;
8889;SDS011;4481;43.406;24.454;2023-03-20T02:09:50;20.43;;;12.77;;
8889;SDS011;4481;43.406;24.454;2023-03-20T02:12:16;16.90;;;12.10;;
8889;SDS011;4481;43.406;24.454;2023-03-20T02:14:44;18.97;;;12.37;;
8889;SDS011;4481;43.406;24.454;2023-03-20T02:17:12;22.57;;;12.57;;
8889;SDS011;4481;43.406;24.454;2023-03-20T02:19:40;15.27;;;12.00;;
8889;SDS011;4481;43.406;24.454;2023-03-20T02:22:24;22.17;;;12.03;;
8889;SDS011;4481;43.406;24.454;2023-03-20T02:25:21;16.27;;;11.67;;
8889;SDS011;4481;43.406;24.454;2023-03-20T02:33:59;18.33;;;13.70;;
8889;SDS011;4481;43.406;24.454;2023-03-20T02:36:53;17.63;;;12.60;;
8889;SDS011;4481;43.406;24.454;2023-03-20T02:39:54;20.37;;;12.77;;
8889;SDS011;4481;43.406;24.454;2023-03-20T02:42:30;16.33;;;12.40;;
8889;SDS011;4481;43.406;24.454;2023-03-20T02:45:07;16.10;;;11.60;;
8889;SDS011;4481;43.406;24.454;2023-03-20T02:47:44;16.10;;;11.77;;
8889;SDS011;4481;43.406;24.454;2023-03-20T02:50:15;19.37;;;10.97;;
8889;SDS011;4481;43.406;24.454;2023-03-20T02:52:45;18.83;;;12.60;;
8889;SDS011;4481;43.406;24.454;2023-03-20T02:55:19;19.70;;;11.67;;
8889;SDS011;4481;43.406;24.454;2023-03-20T02:57:55;16.97;;;11.63;;
8889;SDS011;4481;43.406;24.454;2023-03-20T03:00:26;15.83;;;11.13;;
8889;SDS011;4481;43.406;24.454;2023-03-20T03:02:59;13.90;;;11.60;;
8889;SDS011;4481;43.406;24.454;2023-03-20T03:05:33;17.90;;;11.40;;
8889;SDS011;4481;43.406;24.454;2023-03-20T03:08:03;16.30;;;12.07;;
8889;SDS011;4481;43.406;24.454;2023-03-20T03:10:33;19.03;;;11.47;;
8889;SDS011;4481;43.406;24.454;2023-03-20T03:13:02;14.50;;;10.93;;
8889;SDS011;4481;43.406;24.454;2023-03-20T03:15:33;16.30;;;11.50;;
8889;SDS011;4481;43.406;24.454;2023-03-20T03:18:03;17.77;;;12.13;;
8889;SDS011;4481;43.406;24.454;2023-03-20T03:20:32;17.73;;;11.60;;
8889;SDS011;4481;43.406;24.454;2023-03-20T03:23:01;16.77;;;10.90;;
8889;SDS011;4481;43.406;24.454;2023-03-20T03:25:29;14.40;;;11.03;;
8889;SDS011;4481;43.406;24.454;2023-03-20T03:28:00;16.13;;;10.90;;
8889;SDS011;4481;43.406;24.454;2023-03-20T03:30:31;15.33;;;10.67;;
8889;SDS011;4481;43.406;24.454;2023-03-20T03:33:07;12.77;;;10.03;;
8889;SDS011;4481;43.406;24.454;2023-03-20T03:35:39;16.70;;;10.77;;
8889;SDS011;4481;43.406;24.454;2023-03-20T03:38:09;14.77;;;10.87;;
8889;SDS011;4481;43.406;24.454;2023-03-20T03:40:48;13.77;;;10.23;;
8889;SDS011;4481;43.406;24.454;2023-03-20T03:43:19;19.43;;;10.17;;
8889;SDS011;4481;43.406;24.454;2023-03-20T03:45:53;14.67;;;10.07;;
8889;SDS011;4481;43.406;24.454;2023-03-20T03:48:26;15.10;;;9.30;;
8889;SDS011;4481;43.406;24.454;2023-03-20T03:50:58;20.90;;;10.80;;
8889;SDS011;4481;43.406;24.454;2023-03-20T03:53:28;14.30;;;10.23;;
8889;SDS011;4481;43.406;24.454;2023-03-20T03:55:58;17.23;;;9.87;;
8889;SDS011;4481;43.406;24.454;2023-03-20T03:58:28;16.20;;;9.67;;
8889;SDS011;4481;43.406;24.454;2023-03-20T04:00:57;13.40;;;8.87;;
8889;SDS011;4481;43.406;24.454;2023-03-20T04:03:27;15.20;;;9.03;;
8889;SDS011;4481;43.406;24.454;2023-03-20T04:05:57;11.33;;;8.03;;
8889;SDS011;4481;43.406;24.454;2023-03-20T04:08:25;13.30;;;9.67;;
8889;SDS011;4481;43.406;24.454;2023-03-20T04:10:51;18.80;;;10.93;;
8889;SDS011;4481;43.406;24.454;2023-03-20T04:13:18;15.63;;;11.33;;
8889;SDS011;4481;43.406;24.454;2023-03-20T04:15:44;17.43;;;13.23;;
8889;SDS011;4481;43.406;24.454;2023-03-20T04:18:12;17.70;;;13.40;;
8889;SDS011;4481;43.406;24.454;2023-03-20T04:20:40;15.83;;;13.33;;
8889;SDS011;4481;43.406;24.454;2023-03-20T04:23:06;16.23;;;14.50;;
8889;SDS011;4481;43.406;24.454;2023-03-20T04:25:32;16.63;;;13.87;;
8889;SDS011;4481;43.406;24.454;2023-03-20T04:27:59;14.20;;;12.40;;
8889;SDS011;4481;43.406;24.454;2023-03-20T04:30:25;18.50;;;13.13;;
8889;SDS011;4481;43.406;24.454;2023-03-20T04:32:51;18.23;;;12.37;;
8889;SDS011;4481;43.406;24.454;2023-03-20T04:35:18;15.17;;;12.37;;
8889;SDS011;4481;43.406;24.454;2023-03-20T04:37:44;16.27;;;11.53;;
8889;SDS011;4481;43.406;24.454;2023-03-20T04:40:10;23.37;;;12.20;;
8889;SDS011;4481;43.406;24.454;2023-03-20T04:42:37;15.97;;;11.43;;
8889;SDS011;4481;43.406;24.454;2023-03-20T04:45:04;17.73;;;13.57;;
8889;SDS011;4481;43.406;24.454;2023-03-20T04:47:31;16.40;;;12.23;;
8889;SDS011;4481;43.406;24.454;2023-03-20T04:49:58;17.17;;;11.87;;
8889;SDS011;4481;43.406;24.454;2023-03-20T04:52:24;19.67;;;13.07;;
8889;SDS011;4481;43.406;24.454;2023-03-20T04:54:50;16.60;;;12.17;;
8889;SDS011;4481;43.406;24.454;2023-03-20T04:57:16;17.87;;;12.90;;
8889;SDS011;4481;43.406;24.454;2023-03-20T04:59:43;16.17;;;10.63;;
8889;SDS011;4481;43.406;24.454;2023-03-20T05:02:09;14.10;;;9.87;;
8889;SDS011;4481;43.406;24.454;2023-03-20T05:04:39;11.30;;;9.03;;
8889;SDS011;4481;43.406;24.454;2023-03-20T05:07:06;12.83;;;9.00;;
8889;SDS011;4481;43.406;24.454;2023-03-20T05:09:32;11.97;;;9.27;;
8889;SDS011;4481;43.406;24.454;2023-03-20T05:11:58;18.27;;;10.93;;
8889;SDS011;4481;43.406;24.454;2023-03-20T05:14:24;26.33;;;13.27;;
8889;SDS011;4481;43.406;24.454;2023-03-20T05:16:50;16.40;;;11.83;;
8889;SDS011;4481;43.406;24.454;2023-03-20T05:19:16;15.30;;;11.60;;
8889;SDS011;4481;43.406;24.454;2023-03-20T05:21:43;15.57;;;10.17;;
8889;SDS011;4481;43.406;24.454;2023-03-20T05:24:10;17.50;;;11.53;;
8889;SDS011;4481;43.406;24.454;2023-03-20T05:26:36;18.80;;;11.47;;
8889;SDS011;4481;43.406;24.454;2023-03-20T05:29:02;23.93;;;13.10;;
8889;SDS011;4481;43.406;24.454;2023-03-20T05:31:28;24.13;;;12.13;;
8889;SDS011;4481;43.406;24.454;2023-03-20T05:33:55;18.43;;;11.50;;
8889;SDS011;4481;43.406;24.454;2023-03-20T05:36:21;19.23;;;10.03;;
8889;SDS011;4481;43.406;24.454;2023-03-20T05:38:47;16.43;;;10.73;;
8889;SDS011;4481;43.406;24.454;2023-03-20T05:41:14;21.10;;;11.60;;
8889;SDS011;4481;43.406;24.454;2023-03-20T05:43:40;17.57;;;10.03;;
8889;SDS011;4481;43.406;24.454;2023-03-20T05:46:06;14.73;;;10.10;;
8889;SDS011;4481;43.406;24.454;2023-03-20T05:48:33;13.37;;;9.10;;
8889;SDS011;4481;43.406;24.454;2023-03-20T05:50:59;10.57;;;8.73;;
8889;SDS011;4481;43.406;24.454;2023-03-20T05:53:25;11.70;;;8.70;;
8889;SDS011;4481;43.406;24.454;2023-03-20T05:55:51;12.67;;;8.10;;
8889;SDS011;4481;43.406;24.454;2023-03-20T05:58:18;10.23;;;8.53;;
8889;SDS011;4481;43.406;24.454;2023-03-20T06:00:45;12.63;;;7.97;;
8889;SDS011;4481;43.406;24.454;2023-03-20T06:03:11;8.40;;;6.80;;
8889;SDS011;4481;43.406;24.454;2023-03-20T06:05:37;14.80;;;8.00;;
8889;SDS011;4481;43.406;24.454;2023-03-20T06:08:03;14.30;;;7.80;;
8889;SDS011;4481;43.406;24.454;2023-03-20T06:10:30;8.40;;;7.37;;
8889;SDS011;4481;43.406;24.454;2023-03-20T06:12:56;9.90;;;7.37;;
8889;SDS011;4481;43.406;24.454;2023-03-20T06:15:25;10.80;;;7.43;;
8889;SDS011;4481;43.406;24.454;2023-03-20T06:17:53;14.10;;;7.97;;
8889;SDS011;4481;43.406;24.454;2023-03-20T06:20:19;11.60;;;8.00;;
8889;SDS011;4481;43.406;24.454;2023-03-20T06:22:45;9.93;;;7.43;;
8889;SDS011;4481;43.406;24.454;2023-03-20T06:25:12;10.60;;;7.87;;
8889;SDS011;4481;43.406;24.454;2023-03-20T06:27:38;11.40;;;8.10;;
8889;SDS011;4481;43.406;24.454;2023-03-20T06:30:05;11.03;;;7.90;;
8889;SDS011;4481;43.406;24.454;2023-03-20T06:32:32;10.37;;;8.40;;
8889;SDS011;4481;43.406;24.454;2023-03-20T06:34:58;13.60;;;8.67;;
8889;SDS011;4481;43.406;24.454;2023-03-20T06:37:24;10.10;;;8.20;;
8889;SDS011;4481;43.406;24.454;2023-03-20T06:39:52;11.70;;;8.37;;
8889;SDS011;4481;43.406;24.454;2023-03-20T06:42:18;14.20;;;10.03;;
8889;SDS011;4481;43.406;24.454;2023-03-20T06:44:44;11.07;;;8.80;;
8889;SDS011;4481;43.406;24.454;2023-03-20T06:47:11;12.27;;;8.97;;
8889;SDS011;4481;43.406;24.454;2023-03-20T06:49:38;11.57;;;9.43;;
8889;SDS011;4481;43.406;24.454;2023-03-20T06:52:04;10.93;;;8.70;;
8889;SDS011;4481;43.406;24.454;2023-03-20T06:54:31;11.20;;;8.50;;
8889;SDS011;4481;43.406;24.454;2023-03-20T06:56:58;11.67;;;8.60;;
8889;SDS011;4481;43.406;24.454;2023-03-20T06:59:24;9.57;;;8.40;;
8889;SDS011;4481;43.406;24.454;2023-03-20T07:01:51;10.43;;;8.20;;
8889;SDS011;4481;43.406;24.454;2023-03-20T07:04:18;10.03;;;9.00;;
8889;SDS011;4481;43.406;24.454;2023-03-20T07:06:45;10.10;;;8.43;;
8889;SDS011;4481;43.406;24.454;2023-03-20T07:09:11;14.07;;;9.20;;
8889;SDS011;4481;43.406;24.454;2023-03-20T07:11:38;14.97;;;10.70;;
8889;SDS011;4481;43.406;24.454;2023-03-20T07:14:04;11.53;;;10.03;;
8889;SDS011;4481;43.406;24.454;2023-03-20T07:16:30;10.93;;;9.83;;
8889;SDS011;4481;43.406;24.454;2023-03-20T07:18:56;13.40;;;10.73;;
8889;SDS011;4481;43.406;24.454;2023-03-20T07:21:22;15.93;;;10.50;;
8889;SDS011;4481;43.406;24.454;2023-03-20T07:23:50;13.13;;;10.77;;
8889;SDS011;4481;43.406;24.454;2023-03-20T07:26:16;13.27;;;10.67;;
8889;SDS011;4481;43.406;24.454;2023-03-20T07:28:42;11.63;;;10.40;;
8889;SDS011;4481;43.406;24.454;2023-03-20T07:31:08;14.57;;;11.37;;
8889;SDS011;4481;43.406;24.454;2023-03-20T07:33:38;14.60;;;11.33;;
8889;SDS011;4481;43.406;24.454;2023-03-20T07:36:05;12.17;;;10.70;;
8889;SDS011;4481;43.406;24.454;2023-03-20T07:38:31;14.90;;;11.17;;
8889;SDS011;4481;43.406;24.454;2023-03-20T07:40:58;12.10;;;10.17;;
8889;SDS011;4481;43.406;24.454;2023-03-20T07:43:24;14.93;;;11.43;;
8889;SDS011;4481;43.406;24.454;2023-03-20T07:45:50;16.47;;;10.53;;
8889;SDS011;4481;43.406;24.454;2023-03-20T07:48:17;14.20;;;11.47;;
8889;SDS011;4481;43.406;24.454;2023-03-20T07:50:43;14.47;;;10.77;;
8889;SDS011;4481;43.406;24.454;2023-03-20T07:53:10;13.03;;;10.57;;
8889;SDS011;4481;43.406;24.454;2023-03-20T07:55:36;12.50;;;10.77;;
8889;SDS011;4481;43.406;24.454;2023-03-20T07:58:03;14.67;;;10.03;;
8889;SDS011;4481;43.406;24.454;2023-03-20T08:00:29;13.07;;;9.80;;
8889;SDS011;4481;43.406;24.454;2023-03-20T08:02:55;14.70;;;10.07;;
8889;SDS011;4481;43.406;24.454;2023-03-20T08:05:22;11.50;;;9.90;;
8889;SDS011;4481;43.406;24.454;2023-03-20T08:07:48;10.67;;;9.33;;
8889;SDS011;4481;43.406;24.454;2023-03-20T08:10:15;12.90;;;10.37;;
8889;SDS011;4481;43.406;24.454;2023-03-20T08:12:41;12.17;;;10.77;;
8889;SDS011;4481;43.406;24.454;2023-03-20T08:15:09;12.60;;;10.47;;
8889;SDS011;4481;43.406;24.454;2023-03-20T08:17:35;13.93;;;9.83;;
8889;SDS011;4481;43.406;24.454;2023-03-20T08:20:02;12.40;;;9.53;;
8889;SDS011;4481;43.406;24.454;2023-03-20T08:22:28;11.93;;;9.00;;
8889;SDS011;4481;43.406;24.454;2023-03-20T08:24:55;10.10;;;8.97;;
8889;SDS011;4481;43.406;24.454;2023-03-20T08:27:21;14.10;;;10.07;;
8889;SDS011;4481;43.406;24.454;2023-03-20T08:29:47;11.70;;;9.70;;
8889;SDS011;4481;43.406;24.454;2023-03-20T08:32:14;11.23;;;9.67;;
8889;SDS011;4481;43.406;24.454;2023-03-20T08:34:40;13.10;;;9.23;;
8889;SDS011;4481;43.406;24.454;2023-03-20T08:37:06;14.23;;;9.47;;
8889;SDS011;4481;43.406;24.454;2023-03-20T08:39:32;10.20;;;9.13;;
8889;SDS011;4481;43.406;24.454;2023-03-20T08:42:00;11.93;;;9.13;;
8889;SDS011;4481;43.406;24.454;2023-03-20T08:44:26;9.60;;;8.37;;
8889;SDS011;4481;43.406;24.454;2023-03-20T08:46:54;9.50;;;7.87;;
8889;SDS011;4481;43.406;24.454;2023-03-20T08:49:21;12.97;;;8.50;;
8889;SDS011;4481;43.406;24.454;2023-03-20T08:51:49;10.00;;;8.83;;
8889;SDS011;4481;43.406;24.454;2023-03-20T08:54:15;11.10;;;8.73;;
8889;SDS011;4481;43.406;24.454;2023-03-20T08:56:42;12.57;;;8.07;;
8889;SDS011;4481;43.406;24.454;2023-03-20T08:59:08;13.23;;;8.23;;
8889;SDS011;4481;43.406;24.454;2023-03-20T09:01:35;11.00;;;8.90;;
8889;SDS011;4481;43.406;24.454;2023-03-20T09:04:01;10.87;;;8.83;;
8889;SDS011;4481;43.406;24.454;2023-03-20T09:06:28;9.03;;;8.13;;
8889;SDS011;4481;43.406;24.454;2023-03-20T09:08:55;10.27;;;8.17;;
8889;SDS011;4481;43.406;24.454;2023-03-20T09:11:21;9.40;;;8.10;;
8889;SDS011;4481;43.406;24.454;2023-03-20T09:13:47;10.10;;;7.93;;
8889;SDS011;4481;43.406;24.454;2023-03-20T09:16:14;8.07;;;7.27;;
8889;SDS011;4481;43.406;24.454;2023-03-20T09:18:40;7.77;;;6.97;;
8889;SDS011;4481;43.406;24.454;2023-03-20T09:21:07;10.43;;;8.27;;
8889;SDS011;4481;43.406;24.454;2023-03-20T09:23:34;10.87;;;7.37;;
8889;SDS011;4481;43.406;24.454;2023-03-20T09:26:00;11.10;;;8.07;;
8889;SDS011;4481;43.406;24.454;2023-03-20T09:28:26;8.90;;;7.03;;
8889;SDS011;4481;43.406;24.454;2023-03-20T09:30:54;8.33;;;7.43;;
8889;SDS011;4481;43.406;24.454;2023-03-20T09:33:20;9.23;;;7.20;;
8889;SDS011;4481;43.406;24.454;2023-03-20T09:35:46;13.63;;;8.20;;
8889;SDS011;4481;43.406;24.454;2023-03-20T09:38:13;8.70;;;7.57;;
8889;SDS011;4481;43.406;24.454;2023-03-20T09:40:45;9.17;;;7.43;;
8889;SDS011;4481;43.406;24.454;2023-03-20T09:43:17;10.00;;;7.33;;
8889;SDS011;4481;43.406;24.454;2023-03-20T09:45:53;9.77;;;7.60;;
8889;SDS011;4481;43.406;24.454;2023-03-20T09:48:27;8.50;;;6.70;;
8889;SDS011;4481;43.406;24.454;2023-03-20T09:51:01;8.70;;;6.63;;
8889;SDS011;4481;43.406;24.454;2023-03-20T09:53:37;7.83;;;7.03;;
8889;SDS011;4481;43.406;24.454;2023-03-20T09:56:09;7.40;;;6.47;;
8889;SDS011;4481;43.406;24.454;2023-03-20T09:58:40;8.37;;;6.90;;
8889;SDS011;4481;43.406;24.454;2023-03-20T10:01:10;7.00;;;6.27;;
8889;SDS011;4481;43.406;24.454;2023-03-20T10:03:41;8.27;;;7.00;;
8889;SDS011;4481;43.406;24.454;2023-03-20T10:06:12;8.57;;;6.17;;
8889;SDS011;4481;43.406;24.454;2023-03-20T10:08:40;7.27;;;5.90;;
8889;SDS011;4481;43.406;24.454;2023-03-20T10:11:13;6.53;;;5.83;;
8889;SDS011;4481;43.406;24.454;2023-03-20T10:13:57;7.40;;;5.90;;
8889;SDS011;4481;43.406;24.454;2023-03-20T10:16:33;7.60;;;4.77;;
8889;SDS011;4481;43.406;24.454;2023-03-20T10:19:12;9.50;;;5.13;;
8889;SDS011;4481;43.406;24.454;2023-03-20T10:21:46;5.57;;;4.87;;
8889;SDS011;4481;43.406;24.454;2023-03-20T10:24:15;6.50;;;4.67;;
8889;SDS011;4481;43.406;24.454;2023-03-20T10:26:45;6.50;;;4.80;;
8889;SDS011;4481;43.406;24.454;2023-03-20T10:29:18;6.80;;;5.03;;
8889;SDS011;4481;43.406;24.454;2023-03-20T10:31:56;7.10;;;5.93;;
8889;SDS011;4481;43.406;24.454;2023-03-20T10:34:35;6.33;;;5.73;;
8889;SDS011;4481;43.406;24.454;2023-03-20T10:37:18;7.20;;;5.60;;
8889;SDS011;4481;43.406;24.454;2023-03-20T10:39:54;10.67;;;6.30;;
8889;SDS011;4481;43.406;24.454;2023-03-20T10:42:36;7.33;;;5.97;;
8889;SDS011;4481;43.406;24.454;2023-03-20T10:45:07;5.60;;;5.03;;
8889;SDS011;4481;43.406;24.454;2023-03-20T10:47:45;9.17;;;5.87;;
8889;SDS011;4481;43.406;24.454;2023-03-20T10:50:16;7.37;;;5.23;;
8889;SDS011;4481;43.406;24.454;2023-03-20T10:52:44;6.50;;;5.63;;
8889;SDS011;4481;43.406;24.454;2023-03-20T10:55:13;6.17;;;5.50;;
8889;SDS011;4481;43.406;24.454;2023-03-20T10:57:46;7.23;;;4.93;;
8889;SDS011;4481;43.406;24.454;2023-03-20T11:00:19;12.27;;;5.97;;
8889;SDS011;4481;43.406;24.454;2023-03-20T11:02:47;7.10;;;5.40;;
8889;SDS011;4481;43.406;24.454;2023-03-20T11:05:19;7.00;;;4.83;;
8889;SDS011;4481;43.406;24.454;2023-03-20T11:07:48;5.50;;;4.50;;
8889;SDS011;4481;43.406;24.454;2023-03-20T11:10:16;9.07;;;5.03;;
8889;SDS011;4481;43.406;24.454;2023-03-20T11:12:43;8.50;;;5.27;;
8889;SDS011;4481;43.406;24.454;2023-03-20T11:15:21;6.00;;;4.73;;
8889;SDS011;4481;43.406;24.454;2023-03-20T11:17:50;5.00;;;4.50;;
8889;SDS011;4481;43.406;24.454;2023-03-20T11:20:17;4.97;;;4.47;;
8889;SDS011;4481;43.406;24.454;2023-03-20T11:22:45;6.07;;;5.03;;
8889;SDS011;4481;43.406;24.454;2023-03-20T11:25:21;7.83;;;4.80;;
8889;SDS011;4481;43.406;24.454;2023-03-20T11:27:48;8.30;;;5.17;;
8889;SDS011;4481;43.406;24.454;2023-03-20T11:30:15;8.10;;;5.23;;
8889;SDS011;4481;43.406;24.454;2023-03-20T11:32:45;8.60;;;5.20;;
8889;SDS011;4481;43.406;24.454;2023-03-20T11:35:17;7.60;;;5.73;;
8889;SDS011;4481;43.406;24.454;2023-03-20T11:37:47;6.03;;;4.80;;
8889;SDS011;4481;43.406;24.454;2023-03-20T11:40:15;4.40;;;3.90;;
8889;SDS011;4481;43.406;24.454;2023-03-20T11:42:53;5.13;;;4.57;;
8889;SDS011;4481;43.406;24.454;2023-03-20T11:45:21;7.30;;;5.30;;
8889;SDS011;4481;43.406;24.454;2023-03-20T11:47:50;8.03;;;4.70;;
8889;SDS011;4481;43.406;24.454;2023-03-20T11:50:23;6.37;;;4.63;;
8889;SDS011;4481;43.406;24.454;2023-03-20T11:52:54;9.30;;;4.43;;
8889;SDS011;4481;43.406;24.454;2023-03-20T11:55:25;6.63;;;4.60;;
8889;SDS011;4481;43.406;24.454;2023-03-20T11:57:56;6.10;;;4.33;;
8889;SDS011;4481;43.406;24.454;2023-03-20T12:00:24;6.03;;;4.77;;
8889;SDS011;4481;43.406;24.454;2023-03-20T12:02:54;7.63;;;4.00;;
8889;SDS011;4481;43.406;24.454;2023-03-20T12:05:28;5.83;;;4.77;;
8889;SDS011;4481;43.406;24.454;2023-03-20T12:07:57;5.50;;;4.30;;
8889;SDS011;4481;43.406;24.454;2023-03-20T12:10:30;5.40;;;4.10;;
8889;SDS011;4481;43.406;24.454;2023-03-20T12:13:02;6.70;;;4.77;;
8889;SDS011;4481;43.406;24.454;2023-03-20T12:15:32;5.27;;;4.50;;
8889;SDS011;4481;43.406;24.454;2023-03-20T12:18:04;5.80;;;4.93;;
8889;SDS011;4481;43.406;24.454;2023-03-20T12:20:36;5.60;;;4.47;;
8889;SDS011;4481;43.406;24.454;2023-03-20T12:23:11;4.90;;;3.97;;
8889;SDS011;4481;43.406;24.454;2023-03-20T12:25:41;4.40;;;4.00;;
8889;SDS011;4481;43.406;24.454;2023-03-20T12:28:13;5.87;;;4.50;;
8889;SDS011;4481;43.406;24.454;2023-03-20T12:33:39;5.13;;;3.80;;
8889;SDS011;4481;43.406;24.454;2023-03-20T12:36:12;5.13;;;4.00;;
8889;SDS011;4481;43.406;24.454;2023-03-20T12:38:40;5.40;;;4.13;;
8889;SDS011;4481;43.406;24.454;2023-03-20T12:41:10;4.97;;;4.37;;
8889;SDS011;4481;43.406;24.454;2023-03-20T12:43:42;5.33;;;4.20;;
8889;SDS011;4481;43.406;24.454;2023-03-20T12:46:29;4.77;;;4.27;;
8889;SDS011;4481;43.406;24.454;2023-03-20T12:49:05;5.27;;;4.10;;
8889;SDS011;4481;43.406;24.454;2023-03-20T12:51:43;5.90;;;4.40;;
8889;SDS011;4481;43.406;24.454;2023-03-20T12:54:26;5.73;;;4.43;;
8889;SDS011;4481;43.406;24.454;2023-03-20T12:57:02;5.23;;;4.10;;
8889;SDS011;4481;43.406;24.454;2023-03-20T12:59:39;6.20;;;4.47;;
8889;SDS011;4481;43.406;24.454;2023-03-20T13:02:18;5.00;;;4.50;;
8889;SDS011;4481;43.406;24.454;2023-03-20T13:04:57;9.20;;;4.67;;
8889;SDS011;4481;43.406;24.454;2023-03-20T13:07:45;7.10;;;4.30;;
8889;SDS011;4481;43.406;24.454;2023-03-20T13:10:27;5.57;;;4.40;;
8889;SDS011;4481;43.406;24.454;2023-03-20T13:13:02;5.57;;;4.40;;
8889;SDS011;4481;43.406;24.454;2023-03-20T13:15:47;6.30;;;4.17;;
8889;SDS011;4481;43.406;24.454;2023-03-20T13:18:22;7.63;;;4.30;;
8889;SDS011;4481;43.406;24.454;2023-03-20T13:21:06;6.43;;;4.53;;
8889;SDS011;4481;43.406;24.454;2023-03-20T13:23:39;4.80;;;4.40;;
8889;SDS011;4481;43.406;24.454;2023-03-20T13:26:12;6.33;;;5.00;;
8889;SDS011;4481;43.406;24.454;2023-03-20T13:28:48;5.10;;;4.07;;
8889;SDS011;4481;43.406;24.454;2023-03-20T13:31:24;4.53;;;4.07;;
8889;SDS011;4481;43.406;24.454;2023-03-20T13:34:03;8.20;;;4.87;;
8889;SDS011;4481;43.406;24.454;2023-03-20T13:36:41;5.47;;;4.27;;
8889;SDS011;4481;43.406;24.454;2023-03-20T13:39:17;6.27;;;4.43;;
8889;SDS011;4481;43.406;24.454;2023-03-20T13:41:49;5.33;;;4.20;;
8889;SDS011;4481;43.406;24.454;2023-03-20T13:44:19;4.70;;;4.20;;
8889;SDS011;4481;43.406;24.454;2023-03-20T13:46:52;6.87;;;4.37;;
8889;SDS011;4481;43.406;24.454;2023-03-20T13:49:22;5.20;;;4.33;;
8889;SDS011;4481;43.406;24.454;2023-03-20T13:51:55;5.77;;;3.87;;
8889;SDS011;4481;43.406;24.454;2023-03-20T13:54:36;4.47;;;4.03;;
8889;SDS011;4481;43.406;24.454;2023-03-20T13:57:17;6.67;;;4.93;;
8889;SDS011;4481;43.406;24.454;2023-03-20T13:59:58;7.00;;;4.57;;
8889;SDS011;4481;43.406;24.454;2023-03-20T14:02:39;4.20;;;3.80;;
8889;SDS011;4481;43.406;24.454;2023-03-20T14:05:18;5.73;;;3.97;;
8889;SDS011;4481;43.406;24.454;2023-03-20T14:07:48;5.40;;;4.37;;
8889;SDS011;4481;43.406;24.454;2023-03-20T14:10:32;6.23;;;4.10;;
8889;SDS011;4481;43.406;24.454;2023-03-20T14:13:00;5.37;;;4.47;;
8889;SDS011;4481;43.406;24.454;2023-03-20T14:15:30;5.87;;;4.40;;
8889;SDS011;4481;43.406;24.454;2023-03-20T14:17:58;5.73;;;4.57;;
8889;SDS011;4481;43.406;24.454;2023-03-20T14:20:31;6.50;;;4.13;;
8889;SDS011;4481;43.406;24.454;2023-03-20T14:22:59;5.00;;;4.50;;
8889;SDS011;4481;43.406;24.454;2023-03-20T14:25:26;6.80;;;4.50;;
8889;SDS011;4481;43.406;24.454;2023-03-20T14:27:58;8.13;;;4.87;;
8889;SDS011;4481;43.406;24.454;2023-03-20T14:30:38;6.33;;;4.60;;
8889;SDS011;4481;43.406;24.454;2023-03-20T14:33:22;7.53;;;4.13;;
8889;SDS011;4481;43.406;24.454;2023-03-20T14:36:09;5.33;;;4.83;;
8889;SDS011;4481;43.406;24.454;2023-03-20T14:38:45;9.20;;;4.77;;
8889;SDS011;4481;43.406;24.454;2023-03-20T14:41:18;7.63;;;4.80;;
8889;SDS011;4481;43.406;24.454;2023-03-20T14:43:53;4.23;;;3.83;;
8889;SDS011;4481;43.406;24.454;2023-03-20T14:46:29;5.03;;;4.33;;
8889;SDS011;4481;43.406;24.454;2023-03-20T14:49:14;13.80;;;5.10;;
8889;SDS011;4481;43.406;24.454;2023-03-20T14:51:49;4.50;;;3.70;;
8889;SDS011;4481;43.406;24.454;2023-03-20T14:54:22;8.70;;;4.23;;
8889;SDS011;4481;43.406;24.454;2023-03-20T14:56:51;9.60;;;4.00;;
8889;SDS011;4481;43.406;24.454;2023-03-20T14:59:18;5.70;;;4.47;;
8889;SDS011;4481;43.406;24.454;2023-03-20T15:01:45;6.97;;;5.07;;
8889;SDS011;4481;43.406;24.454;2023-03-20T15:04:19;7.47;;;4.70;;
8889;SDS011;4481;43.406;24.454;2023-03-20T15:06:50;5.17;;;4.67;;
8889;SDS011;4481;43.406;24.454;2023-03-20T15:09:22;7.00;;;4.60;;
8889;SDS011;4481;43.406;24.454;2023-03-20T15:11:51;6.30;;;4.43;;
8889;SDS011;4481;43.406;24.454;2023-03-20T15:14:19;10.33;;;4.57;;
8889;SDS011;4481;43.406;24.454;2023-03-20T15:16:48;8.57;;;4.27;;